createdAt,value
2023-05-19T00:00:24.955Z,98272.29
2023-05-19T00:03:13.245Z,98274.05
2023-05-19T00:05:46.388Z,98271.73
2023-05-19T00:08:16.846Z,98271.93
2023-05-19T00:10:45.035Z,98273.26
2023-05-19T00:13:13.222Z,98273.95
2023-05-19T00:15:41.566Z,98272.87
2023-05-19T00:18:10.117Z,98272.59
2023-05-19T00:20:39.085Z,98276.80
2023-05-19T00:23:07.218Z,98276.79
2023-05-19T00:25:35.255Z,98274.30
2023-05-19T00:28:03.754Z,98273.56
2023-05-19T00:30:32.332Z,98276.77
2023-05-19T00:33:00.898Z,98279.31
2023-05-19T00:35:29.085Z,98278.46
2023-05-19T00:37:57.403Z,98275.70
2023-05-19T00:40:26.015Z,98271.14
2023-05-19T00:42:54.063Z,98272.63
2023-05-19T00:45:22.126Z,98273.95
2023-05-19T00:47:50.538Z,98280.70
2023-05-19T00:50:18.603Z,98279.58
2023-05-19T00:52:46.802Z,98285.77
2023-05-19T00:55:15.544Z,98286.67
2023-05-19T00:57:44.251Z,98286.46
2023-05-19T01:00:13.851Z,98285.83
2023-05-19T01:02:42.675Z,98282.63
2023-05-19T01:05:11.342Z,98281.60
2023-05-19T01:07:39.915Z,98283.95
2023-05-19T01:10:08.191Z,98290.12
2023-05-19T01:12:36.486Z,98296.40
2023-05-19T01:15:05.715Z,98293.36
2023-05-19T01:17:37.958Z,98298.52
2023-05-19T01:20:29.299Z,98300.16
2023-05-19T01:23:15.349Z,98293.88
2023-05-19T01:25:58.600Z,98294.62
2023-05-19T01:28:38.762Z,98290.77
2023-05-19T01:31:07.601Z,98288.27
2023-05-19T01:33:36.121Z,98290.23
2023-05-19T01:36:06.721Z,98293.42
2023-05-19T01:38:34.884Z,98298.00
2023-05-19T01:41:04.320Z,98297.94
2023-05-19T01:43:33.301Z,98296.39
2023-05-19T01:46:02.540Z,98298.14
2023-05-19T01:48:30.776Z,98295.33
2023-05-19T01:50:59.293Z,98292.77
2023-05-19T01:53:27.291Z,98294.12
2023-05-19T01:55:56.303Z,98292.67
2023-05-19T01:58:24.441Z,98294.48
2023-05-19T02:01:19.170Z,98292.00
2023-05-19T02:03:50.041Z,98295.61
2023-05-19T02:06:39.436Z,98298.16
2023-05-19T02:09:13.333Z,98304.65
2023-05-19T02:11:53.441Z,98302.52
2023-05-19T02:14:25.985Z,98298.63
2023-05-19T02:16:54.017Z,98298.05
2023-05-19T02:19:23.401Z,98300.81
2023-05-19T02:21:52.359Z,98298.38
2023-05-19T02:24:23.291Z,98295.08
2023-05-19T02:26:52.092Z,98289.91
2023-05-19T02:29:20.738Z,98291.72
2023-05-19T02:31:48.937Z,98297.52
2023-05-19T02:34:17.090Z,98300.02
2023-05-19T02:36:45.119Z,98305.65
2023-05-19T02:39:13.354Z,98313.96
2023-05-19T02:41:41.520Z,98319.55
2023-05-19T02:44:09.756Z,98326.77
2023-05-19T02:46:38.203Z,98323.25
2023-05-19T02:49:06.245Z,98325.80
2023-05-19T02:51:34.348Z,98326.11
2023-05-19T02:54:02.532Z,98326.27
2023-05-19T02:56:30.618Z,98323.15
2023-05-19T02:58:58.611Z,98318.43
2023-05-19T03:01:27.088Z,98321.51
2023-05-19T03:03:55.507Z,98330.14
2023-05-19T03:06:24.493Z,98335.97
2023-05-19T03:08:52.847Z,98330.73
2023-05-19T03:11:21.354Z,98333.17
2023-05-19T03:13:49.366Z,98333.40
2023-05-19T03:16:17.828Z,98333.52
2023-05-19T03:18:46.330Z,98336.19
2023-05-19T03:21:14.517Z,98340.30
2023-05-19T03:23:42.506Z,98341.54
2023-05-19T03:26:10.889Z,98339.54
2023-05-19T03:28:38.881Z,98337.79
2023-05-19T03:31:06.865Z,98340.50
2023-05-19T03:33:38.572Z,98339.80
2023-05-19T03:36:07.307Z,98341.91
2023-05-19T03:38:37.881Z,98343.60
2023-05-19T03:41:06.067Z,98351.98
2023-05-19T03:43:34.089Z,98351.72
2023-05-19T03:46:04.177Z,98353.06
2023-05-19T03:49:12.015Z,98352.19
2023-05-19T03:51:46.244Z,98351.00
2023-05-19T03:54:23.386Z,98349.76
2023-05-19T03:56:52.477Z,98349.41
2023-05-19T03:59:20.691Z,98346.05
2023-05-19T04:01:49.061Z,98346.02
2023-05-19T04:04:17.060Z,98344.33
2023-05-19T04:06:46.406Z,98342.51
2023-05-19T04:09:16.304Z,98340.22
2023-05-19T04:11:44.396Z,98342.72
2023-05-19T04:14:12.438Z,98350.31
2023-05-19T04:16:40.599Z,98356.66
2023-05-19T04:19:08.771Z,98363.27
2023-05-19T04:21:36.974Z,98368.44
2023-05-19T04:24:06.419Z,98369.09
2023-05-19T04:26:34.732Z,98364.34
2023-05-19T04:29:04.684Z,98358.41
2023-05-19T04:31:34.651Z,98359.87
2023-05-19T04:34:03.647Z,98359.10
2023-05-19T04:36:34.205Z,98358.33
2023-05-19T04:39:07.170Z,98361.50
2023-05-19T04:41:35.312Z,98361.77
2023-05-19T04:44:04.706Z,98367.86
2023-05-19T04:46:32.977Z,98368.66
2023-05-19T04:49:03.991Z,98369.46
2023-05-19T04:51:32.082Z,98368.41
2023-05-19T04:54:01.654Z,98365.80
2023-05-19T04:56:30.226Z,98366.64
2023-05-19T04:58:58.447Z,98374.45
2023-05-19T05:01:27.491Z,98374.38
2023-05-19T05:03:58.922Z,98371.02
2023-05-19T05:06:28.696Z,98370.23
2023-05-19T05:08:57.150Z,98374.34
2023-05-19T05:11:26.413Z,98374.66
2023-05-19T05:13:58.212Z,98375.48
2023-05-19T05:16:28.441Z,98376.65
2023-05-19T05:18:57.986Z,98375.16
2023-05-19T05:21:26.672Z,98372.07
2023-05-19T05:23:55.516Z,98376.30
2023-05-19T05:26:28.613Z,98379.95
2023-05-19T05:28:56.787Z,98387.86
2023-05-19T05:31:25.950Z,98391.71
2023-05-19T05:33:54.524Z,98386.14
2023-05-19T05:36:25.623Z,98387.48
2023-05-19T05:38:54.642Z,98390.20
2023-05-19T05:41:23.617Z,98393.23
2023-05-19T05:43:52.311Z,98389.23
2023-05-19T05:46:20.397Z,98386.66
2023-05-19T05:48:48.696Z,98387.98
2023-05-19T05:51:18.034Z,98388.10
2023-05-19T05:53:51.071Z,98383.67
2023-05-19T05:56:19.557Z,98382.58
2023-05-19T05:58:51.158Z,98381.66
2023-05-19T06:01:21.044Z,98382.78
2023-05-19T06:03:49.628Z,98387.25
2023-05-19T06:06:21.366Z,98388.33
2023-05-19T06:08:49.397Z,98390.26
2023-05-19T06:11:19.724Z,98389.30
2023-05-19T06:13:48.643Z,98389.04
2023-05-19T06:16:24.253Z,98384.64
2023-05-19T06:18:54.385Z,98387.96
2023-05-19T06:21:22.945Z,98386.20
2023-05-19T06:23:51.168Z,98386.05
2023-05-19T06:26:19.548Z,98385.85
2023-05-19T06:28:47.639Z,98389.30
2023-05-19T06:31:16.590Z,98386.95
2023-05-19T06:33:57.003Z,98386.95
2023-05-19T06:36:25.835Z,98389.04
2023-05-19T06:38:55.523Z,98389.86
2023-05-19T06:41:23.900Z,98391.29
2023-05-19T06:43:52.363Z,98396.08
2023-05-19T06:46:23.308Z,98392.67
2023-05-19T06:48:51.772Z,98386.77
2023-05-19T06:51:22.496Z,98383.98
2023-05-19T06:53:54.065Z,98386.13
2023-05-19T06:56:23.145Z,98381.98
2023-05-19T06:58:51.299Z,98385.91
2023-05-19T07:01:19.862Z,98389.08
2023-05-19T07:03:51.176Z,98391.58
2023-05-19T07:06:19.584Z,98393.48
2023-05-19T07:08:48.214Z,98392.55
2023-05-19T07:11:17.984Z,98396.92
2023-05-19T07:13:46.206Z,98395.85
2023-05-19T07:16:15.877Z,98392.46
2023-05-19T07:18:45.866Z,98387.45
2023-05-19T07:21:13.964Z,98390.74
2023-05-19T07:23:42.019Z,98391.05
2023-05-19T07:26:10.090Z,98392.38
2023-05-19T07:28:39.882Z,98390.36
2023-05-19T07:31:09.893Z,98388.23
2023-05-19T07:33:38.023Z,98392.28
2023-05-19T07:36:06.285Z,98391.90
2023-05-19T07:38:34.983Z,98390.85
2023-05-19T07:41:03.202Z,98391.27
2023-05-19T07:43:31.659Z,98389.77
2023-05-19T07:45:59.927Z,98388.98
2023-05-19T07:48:28.044Z,98384.58
2023-05-19T07:50:56.476Z,98379.23
2023-05-19T07:53:24.542Z,98378.63
2023-05-19T07:55:52.570Z,98379.76
2023-05-19T07:58:20.816Z,98382.83
2023-05-19T08:00:48.901Z,98379.20
2023-05-19T08:03:21.051Z,98374.86
2023-05-19T08:05:49.414Z,98375.44
2023-05-19T08:08:19.349Z,98374.37
2023-05-19T08:10:47.819Z,98375.11
2023-05-19T08:13:15.990Z,98375.09
2023-05-19T08:15:44.263Z,98374.47
2023-05-19T08:18:12.322Z,98362.98
2023-05-19T08:20:40.613Z,98363.60
2023-05-19T08:23:08.595Z,98360.39
2023-05-19T08:25:36.803Z,98358.85
2023-05-19T08:28:05.007Z,98364.72
2023-05-19T08:30:33.176Z,98368.80
2023-05-19T08:33:01.511Z,98369.93
2023-05-19T08:35:29.586Z,98371.59
2023-05-19T08:37:57.626Z,98373.17
2023-05-19T08:40:27.528Z,98371.71
2023-05-19T08:42:55.676Z,98376.86
2023-05-19T08:45:24.612Z,98382.30
2023-05-19T08:47:52.920Z,98378.88
2023-05-19T08:50:25.010Z,98380.15
2023-05-19T08:53:01.699Z,98380.21
2023-05-19T08:55:55.314Z,98383.38
2023-05-19T08:58:23.473Z,98380.81
2023-05-19T09:00:52.237Z,98380.14
2023-05-19T09:03:23.876Z,98376.34
2023-05-19T09:05:52.288Z,98373.27
2023-05-19T09:08:20.978Z,98369.56
2023-05-19T09:10:49.218Z,98365.69
2023-05-19T09:13:17.609Z,98366.27
2023-05-19T09:15:45.700Z,98368.52
2023-05-19T09:18:15.094Z,98371.14
2023-05-19T09:20:43.865Z,98367.58
2023-05-19T09:23:16.547Z,98367.65
2023-05-19T09:25:47.931Z,98374.13
2023-05-19T09:28:23.150Z,98375.55
2023-05-19T09:31:01.268Z,98366.02
2023-05-19T09:33:29.805Z,98361.00
2023-05-19T09:35:57.874Z,98358.33
2023-05-19T09:38:29.620Z,98354.23
2023-05-19T09:40:58.735Z,98348.14
2023-05-19T09:43:30.891Z,98343.76
2023-05-19T09:46:06.631Z,98341.52
2023-05-19T09:48:36.647Z,98342.27
2023-05-19T09:51:07.971Z,98342.67
2023-05-19T09:53:36.558Z,98337.14
2023-05-19T09:56:05.058Z,98336.86
2023-05-19T09:58:37.090Z,98333.95
2023-05-19T10:01:06.057Z,98331.92
2023-05-19T10:03:34.965Z,98328.48
2023-05-19T10:06:04.847Z,98326.20
2023-05-19T10:08:33.776Z,98322.80
2023-05-19T10:11:02.713Z,98311.91
2023-05-19T10:13:31.131Z,98304.31
2023-05-19T10:16:00.148Z,98298.16
2023-05-19T10:18:29.978Z,98290.89
2023-05-19T10:20:59.176Z,98289.36
2023-05-19T10:23:27.166Z,98293.64
2023-05-19T10:25:58.133Z,98291.85
2023-05-19T10:28:30.026Z,98280.02
2023-05-19T10:31:00.741Z,98278.16
2023-05-19T10:33:41.089Z,98271.84
2023-05-19T10:36:24.376Z,98269.29
2023-05-19T10:38:52.350Z,98262.38
2023-05-19T10:41:21.578Z,98262.67
2023-05-19T10:43:54.967Z,98267.31
2023-05-19T10:46:27.249Z,98264.55
2023-05-19T10:48:55.983Z,98265.33
2023-05-19T10:51:33.576Z,98271.34
2023-05-19T10:54:02.883Z,98271.98
2023-05-19T10:56:33.895Z,98270.89
2023-05-19T10:59:02.564Z,98272.89
2023-05-19T11:01:34.423Z,98268.69
2023-05-19T11:04:14.048Z,98263.77
2023-05-19T11:06:51.498Z,98267.66
2023-05-19T11:09:24.390Z,98269.29
2023-05-19T11:12:03.633Z,98263.38
2023-05-19T11:14:32.504Z,98257.92
2023-05-19T11:17:01.056Z,98257.25
2023-05-19T11:19:29.475Z,98257.27
2023-05-19T11:22:07.689Z,98254.31
2023-05-19T11:24:45.342Z,98248.52
2023-05-19T11:27:31.660Z,98245.25
2023-05-19T11:30:02.163Z,98241.92
2023-05-19T11:32:31.220Z,98240.79
2023-05-19T11:35:00.234Z,98240.86
2023-05-19T11:37:32.354Z,98237.08
2023-05-19T11:40:09.654Z,98236.08
2023-05-19T11:42:37.904Z,98234.58
2023-05-19T11:45:06.846Z,98233.55
2023-05-19T11:47:45.950Z,98233.35
2023-05-19T11:50:20.684Z,98227.15
2023-05-19T11:52:49.039Z,98224.95
2023-05-19T11:55:17.658Z,98226.33
2023-05-19T11:58:11.855Z,98229.86
2023-05-19T12:00:42.130Z,98220.77
2023-05-19T12:03:10.867Z,98218.77
2023-05-19T12:05:43.590Z,98213.48
2023-05-19T12:08:12.217Z,98215.21
2023-05-19T12:10:41.089Z,98213.58
2023-05-19T12:13:10.329Z,98206.52
2023-05-19T12:15:39.283Z,98211.03
2023-05-19T12:18:07.773Z,98211.44
2023-05-19T12:20:36.611Z,98211.59
2023-05-19T12:23:05.315Z,98205.31
2023-05-19T12:25:33.758Z,98203.84
2023-05-19T12:28:05.698Z,98204.75
2023-05-19T12:30:35.140Z,98203.60
2023-05-19T12:33:03.750Z,98199.22
2023-05-19T12:35:36.516Z,98197.75
2023-05-19T12:38:05.567Z,98198.70
2023-05-19T12:40:35.339Z,98190.83
2023-05-19T12:43:04.198Z,98195.45
2023-05-19T12:45:37.406Z,98197.39
2023-05-19T12:48:06.914Z,98200.56
2023-05-19T12:50:37.543Z,98192.93
2023-05-19T12:53:08.806Z,98189.73
2023-05-19T12:55:39.519Z,98187.48
2023-05-19T12:58:08.168Z,98191.48
2023-05-19T13:00:40.531Z,98191.23
2023-05-19T13:03:16.002Z,98192.27
2023-05-19T13:05:46.705Z,98195.00
2023-05-19T13:08:18.410Z,98197.39
2023-05-19T13:10:47.127Z,98196.95
2023-05-19T13:13:15.489Z,98193.63
2023-05-19T13:15:45.008Z,98193.39
2023-05-19T13:18:13.698Z,98192.41
2023-05-19T13:20:42.640Z,98196.14
2023-05-19T13:23:11.478Z,98205.19
2023-05-19T13:25:40.055Z,98219.41
2023-05-19T13:28:08.832Z,98216.00
2023-05-19T13:30:39.155Z,98249.64
2023-05-19T13:33:08.233Z,98264.57
2023-05-19T13:35:39.455Z,98271.16
2023-05-19T13:38:10.310Z,98286.60
2023-05-19T13:40:40.120Z,98290.95
2023-05-19T13:43:09.200Z,98306.06
2023-05-19T13:45:37.615Z,98297.48
2023-05-19T13:50:55.856Z,98300.67
2023-05-19T13:51:33.058Z,98293.41
2023-05-19T13:53:24.039Z,98308.33
2023-05-19T13:55:55.182Z,98314.40
2023-05-19T13:58:23.428Z,98298.95
2023-05-19T14:00:54.683Z,98292.05
2023-05-19T14:03:23.568Z,98295.59
2023-05-19T14:05:52.499Z,98295.00
2023-05-19T14:08:21.061Z,98293.21
2023-05-19T14:10:51.074Z,98282.42
2023-05-19T14:13:32.584Z,98272.73
2023-05-19T14:16:04.010Z,98266.19
2023-05-19T14:18:32.681Z,98281.82
2023-05-19T14:21:00.685Z,98285.00
2023-05-19T14:23:30.476Z,98282.42
2023-05-19T14:25:58.754Z,98280.53
2023-05-19T14:28:26.837Z,98276.06
2023-05-19T14:30:55.091Z,98276.27
2023-05-19T14:33:23.038Z,98275.71
2023-05-19T14:35:50.973Z,98276.11
2023-05-19T14:38:19.278Z,98273.02
2023-05-19T14:40:48.540Z,98270.69
2023-05-19T14:43:16.954Z,98273.30
2023-05-19T14:45:45.133Z,98274.65
2023-05-19T14:48:13.152Z,98272.14
2023-05-19T14:50:41.137Z,98271.16
2023-05-19T14:53:09.397Z,98269.45
2023-05-19T14:55:37.768Z,98270.21
2023-05-19T14:58:15.861Z,98265.58
2023-05-19T15:00:48.396Z,98258.23
2023-05-19T15:03:16.774Z,98252.89
2023-05-19T15:05:45.616Z,98248.27
2023-05-19T15:08:13.639Z,98238.73
2023-05-19T15:10:41.957Z,98233.16
2023-05-19T15:13:10.506Z,98228.60
2023-05-19T15:15:38.573Z,98226.26
2023-05-19T15:18:06.639Z,98220.39
2023-05-19T15:20:34.924Z,98214.58
2023-05-19T15:23:03.259Z,98214.40
2023-05-19T15:25:31.605Z,98211.80
2023-05-19T15:27:59.798Z,98209.26
2023-05-19T15:30:27.779Z,98204.75
2023-05-19T15:32:55.947Z,98202.84
2023-05-19T15:35:24.060Z,98202.16
2023-05-19T15:37:52.429Z,98202.68
2023-05-19T15:40:20.554Z,98205.48
2023-05-19T15:42:48.508Z,98205.11
2023-05-19T15:45:16.556Z,98211.11
2023-05-19T15:47:44.795Z,98207.54
2023-05-19T15:50:13.165Z,98208.16
2023-05-19T15:52:42.304Z,98208.96
2023-05-19T15:55:10.515Z,98206.29
2023-05-19T15:57:38.513Z,98203.09
2023-05-19T16:00:07.750Z,98201.79
2023-05-19T16:02:36.197Z,98198.79
2023-05-19T16:05:04.571Z,98199.00
2023-05-19T16:07:32.589Z,98196.63
2023-05-19T16:10:00.628Z,98201.12
2023-05-19T16:12:29.657Z,98203.35
2023-05-19T16:14:57.747Z,98205.92
2023-05-19T16:17:26.133Z,98204.65
2023-05-19T16:19:54.246Z,98209.73
2023-05-19T16:22:24.900Z,98205.87
2023-05-19T16:24:53.080Z,98205.33
2023-05-19T16:27:21.282Z,98206.41
2023-05-19T16:29:49.607Z,98208.90
2023-05-19T16:32:17.614Z,98212.73
2023-05-19T16:34:45.554Z,98212.92
2023-05-19T16:37:13.688Z,98214.29
2023-05-19T16:39:43.863Z,98218.98
2023-05-19T16:42:11.940Z,98222.99
2023-05-19T16:44:39.912Z,98229.58
2023-05-19T16:47:07.994Z,98232.38
2023-05-19T16:49:36.024Z,98234.20
2023-05-19T16:52:04.269Z,98238.71
2023-05-19T16:54:32.243Z,98240.06
2023-05-19T16:57:00.494Z,98244.78
2023-05-19T16:59:28.506Z,98248.88
2023-05-19T17:01:57.018Z,98251.87
2023-05-19T17:04:25.252Z,98257.48
2023-05-19T17:06:53.223Z,98257.56
2023-05-19T17:09:25.283Z,98261.88
2023-05-19T17:11:53.591Z,98262.92
2023-05-19T17:14:21.648Z,98263.99
2023-05-19T17:16:49.851Z,98263.27
2023-05-19T17:19:17.924Z,98265.48
2023-05-19T17:21:46.550Z,98268.64
2023-05-19T17:24:14.614Z,98274.73
2023-05-19T17:26:42.575Z,98276.85
2023-05-19T17:29:10.607Z,98280.11
2023-05-19T17:31:38.814Z,98278.48
2023-05-19T17:34:06.976Z,98276.45
2023-05-19T17:36:35.122Z,98282.58
2023-05-19T17:39:03.720Z,98287.51
2023-05-19T17:41:31.941Z,98285.94
2023-05-19T17:44:00.145Z,98282.89
2023-05-19T17:46:30.282Z,98281.98
2023-05-19T17:48:59.066Z,98281.20
2023-05-19T17:51:27.809Z,98280.20
2023-05-19T17:53:55.996Z,98282.42
2023-05-19T17:56:25.007Z,98285.21
2023-05-19T17:58:53.588Z,98289.63
2023-05-19T18:01:24.216Z,98291.85
2023-05-19T18:03:52.765Z,98289.43
2023-05-19T18:06:20.945Z,98291.49
2023-05-19T18:08:51.401Z,98292.30
2023-05-19T18:11:20.085Z,98293.00
2023-05-19T18:13:48.083Z,98300.80
2023-05-19T18:16:16.082Z,98308.52
2023-05-19T18:18:47.140Z,98314.58
2023-05-19T18:21:17.940Z,98311.73
2023-05-19T18:23:46.531Z,98311.83
2023-05-19T18:26:14.738Z,98314.19
2023-05-19T18:28:43.579Z,98313.28
2023-05-19T18:31:17.503Z,98318.50
2023-05-19T18:33:46.580Z,98323.66
2023-05-19T18:36:16.784Z,98324.27
2023-05-19T18:38:44.990Z,98327.92
2023-05-19T18:41:14.670Z,98332.45
2023-05-19T18:43:42.698Z,98335.19
2023-05-19T18:46:10.768Z,98333.48
2023-05-19T18:48:39.211Z,98334.27
2023-05-19T18:51:07.892Z,98333.11
2023-05-19T18:53:36.490Z,98332.60
2023-05-19T18:56:04.555Z,98332.36
2023-05-19T18:58:32.713Z,98333.26
2023-05-19T19:01:00.761Z,98335.19
2023-05-19T19:03:29.008Z,98337.77
2023-05-19T19:06:00.828Z,98339.31
2023-05-19T19:08:28.815Z,98338.48
2023-05-19T19:11:00.307Z,98340.48
2023-05-19T19:13:28.547Z,98346.55
2023-05-19T19:15:57.190Z,98350.00
2023-05-19T19:18:26.226Z,98349.20
2023-05-19T19:20:54.999Z,98350.04
2023-05-19T19:23:23.502Z,98347.95
2023-05-19T19:25:51.532Z,98344.41
2023-05-19T19:28:19.637Z,98349.22
2023-05-19T19:30:49.752Z,98352.66
2023-05-19T19:33:17.862Z,98356.33
2023-05-19T19:35:48.758Z,98361.48
2023-05-19T19:38:17.151Z,98360.56
2023-05-19T19:40:45.257Z,98363.41
2023-05-19T19:43:13.443Z,98364.20
2023-05-19T19:45:42.166Z,98365.61
2023-05-19T19:48:10.257Z,98370.73
2023-05-19T19:50:38.322Z,98373.11
2023-05-19T19:53:06.670Z,98371.67
2023-05-19T19:55:34.835Z,98372.29
2023-05-19T19:58:02.919Z,98370.39
2023-05-19T20:00:31.617Z,98370.94
2023-05-19T20:03:04.539Z,98372.34
2023-05-19T20:05:34.732Z,98375.63
2023-05-19T20:08:02.711Z,98376.42
2023-05-19T20:10:31.153Z,98374.59
2023-05-19T20:12:59.638Z,98370.73
2023-05-19T20:15:27.690Z,98368.41
2023-05-19T20:17:56.031Z,98369.40
2023-05-19T20:20:24.109Z,98369.82
2023-05-19T20:22:52.451Z,98367.91
2023-05-19T20:25:20.549Z,98375.71
2023-05-19T20:27:48.575Z,98379.85
2023-05-19T20:30:16.832Z,98378.79
2023-05-19T20:32:46.719Z,98381.16
2023-05-19T20:35:15.106Z,98384.90
2023-05-19T20:37:43.053Z,98385.77
2023-05-19T20:40:11.269Z,98385.21
2023-05-19T20:42:39.514Z,98386.16
2023-05-19T20:45:08.285Z,98386.91
2023-05-19T20:47:36.504Z,98383.45
2023-05-19T20:50:04.818Z,98383.96
2023-05-19T20:52:33.175Z,98384.09
2023-05-19T20:55:01.291Z,98378.34
2023-05-19T20:57:29.325Z,98378.16
2023-05-19T20:59:57.360Z,98382.54
2023-05-19T21:02:25.549Z,98383.02
2023-05-19T21:04:53.679Z,98381.73
2023-05-19T21:07:21.840Z,98386.02
2023-05-19T21:09:51.527Z,98389.38
2023-05-19T21:12:23.902Z,98386.65
2023-05-19T21:14:52.309Z,98390.50
2023-05-19T21:17:21.260Z,98389.88
2023-05-19T21:19:50.612Z,98392.37
2023-05-19T21:22:19.090Z,98390.94
2023-05-19T21:24:47.190Z,98394.01
2023-05-19T21:27:15.292Z,98394.02
2023-05-19T21:29:43.232Z,98397.55
2023-05-19T21:32:11.229Z,98393.31
2023-05-19T21:34:39.535Z,98392.89
2023-05-19T21:37:07.716Z,98393.77
2023-05-19T21:39:35.846Z,98393.73
2023-05-19T21:42:04.268Z,98395.54
2023-05-19T21:44:32.496Z,98399.91
2023-05-19T21:47:00.898Z,98399.97
2023-05-19T21:49:28.988Z,98401.54
2023-05-19T21:51:57.055Z,98405.73
2023-05-19T21:54:24.983Z,98407.92
2023-05-19T21:56:56.094Z,98410.07
2023-05-19T21:59:24.889Z,98414.56
2023-05-19T22:01:53.118Z,98410.30
2023-05-19T22:04:22.676Z,98405.77
2023-05-19T22:06:51.296Z,98408.66
2023-05-19T22:09:19.265Z,98408.88
2023-05-19T22:11:47.243Z,98403.76
2023-05-19T22:14:15.615Z,98403.98
2023-05-19T22:16:43.866Z,98405.12
2023-05-19T22:19:12.244Z,98400.17
2023-05-19T22:21:40.830Z,98401.17
2023-05-19T22:24:09.294Z,98406.64
2023-05-19T22:26:38.008Z,98408.35
2023-05-19T22:29:06.207Z,98404.57
2023-05-19T22:31:34.151Z,98406.80
2023-05-19T22:34:02.307Z,98412.72
2023-05-19T22:36:31.384Z,98411.66
2023-05-19T22:38:59.348Z,98408.80
2023-05-19T22:41:27.490Z,98411.94
2023-05-19T22:43:55.457Z,98416.63
2023-05-19T22:46:23.715Z,98416.84
2023-05-19T22:48:51.901Z,98412.63
2023-05-19T22:51:19.950Z,98413.65
2023-05-19T22:53:49.009Z,98414.02
2023-05-19T22:56:17.285Z,98412.32
2023-05-19T22:58:45.238Z,98411.79
2023-05-19T23:01:13.253Z,98412.00
2023-05-19T23:03:41.502Z,98411.95
2023-05-19T23:06:09.713Z,98415.34
2023-05-19T23:08:37.662Z,98419.98
2023-05-19T23:11:05.690Z,98422.11
2023-05-19T23:13:33.869Z,98420.20
2023-05-19T23:16:02.470Z,98415.13
2023-05-19T23:18:30.457Z,98418.80
2023-05-19T23:20:58.692Z,98418.26
2023-05-19T23:23:27.643Z,98420.27
2023-05-19T23:25:56.764Z,98416.33
2023-05-19T23:28:24.817Z,98414.66
2023-05-19T23:30:53.325Z,98413.20
2023-05-19T23:33:21.666Z,98413.14
2023-05-19T23:35:49.687Z,98415.09
2023-05-19T23:38:17.904Z,98423.32
2023-05-19T23:40:46.082Z,98422.25
2023-05-19T23:43:14.116Z,98418.48
2023-05-19T23:45:42.444Z,98413.39
2023-05-19T23:48:11.236Z,98409.67
2023-05-19T23:50:39.322Z,98409.74
2023-05-19T23:53:08.150Z,98405.49
2023-05-19T23:55:36.308Z,98403.64
2023-05-19T23:58:04.546Z,98402.80
